KDLN/DLN METAR and TAF weather

Enter ICAO airport designator
Station Type Date Time Source
KDLN METAR 2022/05/23 13:53 UTC NOAA

KDLN 231353Z AUTO 24007KT 10SM CLR 02/M01 A3018 RMK AO2 SLP220 T00171006


Station Type Date Time Source
KDLN Decoded METAR 2022/05/23 13:53 UTC NOAA

DILLON AIRPORT, MT, United States (KDLN) 45-15N 112-33W 1591M
May 23, 2022 - 09:53 AM EDT / 2022.05.23 1353 UTC
Wind: from the WSW (240 degrees) at 8 MPH (7 KT):0
Visibility: 10 mile(s):0
Sky conditions: clear
Temperature: 35.1 F (1.7 C)
Dew Point: 30.9 F (-0.6 C)
Relative Humidity: 84%
Pressure (altimeter): 30.18 in. Hg (1022 hPa)
ob: KDLN 231353Z AUTO 24007KT 10SM CLR 02/M01 A3018 RMK AO2 SLP220 T00171006
cycle: 14

Station Type Date Time Source
KDLN TAF UTC NOAA

Error!

Example: see airport list